sensor_id;sensor_type;location;lat;lon;timestamp;P1;durP1;ratioP1;P2;durP2;ratioP2
3085;SDS011;52812;48.960;9.108;2022-10-17T00:00:38;7.83;;;5.60;;
3085;SDS011;52812;48.960;9.108;2022-10-17T00:03:04;8.07;;;5.83;;
3085;SDS011;52812;48.960;9.108;2022-10-17T00:05:30;10.13;;;5.83;;
3085;SDS011;52812;48.960;9.108;2022-10-17T00:07:55;7.57;;;6.00;;
3085;SDS011;52812;48.960;9.108;2022-10-17T00:10:21;7.40;;;5.47;;
3085;SDS011;52812;48.960;9.108;2022-10-17T00:12:47;8.57;;;5.30;;
3085;SDS011;52812;48.960;9.108;2022-10-17T00:15:15;9.50;;;5.97;;
3085;SDS011;52812;48.960;9.108;2022-10-17T00:17:42;9.50;;;5.33;;
3085;SDS011;52812;48.960;9.108;2022-10-17T00:20:08;8.30;;;5.00;;
3085;SDS011;52812;48.960;9.108;2022-10-17T00:22:34;8.20;;;5.57;;
3085;SDS011;52812;48.960;9.108;2022-10-17T00:24:59;9.13;;;6.13;;
3085;SDS011;52812;48.960;9.108;2022-10-17T00:27:25;6.37;;;5.37;;
3085;SDS011;52812;48.960;9.108;2022-10-17T00:29:50;7.50;;;6.10;;
3085;SDS011;52812;48.960;9.108;2022-10-17T00:32:16;9.23;;;5.70;;
3085;SDS011;52812;48.960;9.108;2022-10-17T00:34:43;13.47;;;6.13;;
3085;SDS011;52812;48.960;9.108;2022-10-17T00:37:08;13.33;;;5.73;;
3085;SDS011;52812;48.960;9.108;2022-10-17T00:39:34;7.67;;;5.43;;
3085;SDS011;52812;48.960;9.108;2022-10-17T00:42:00;7.10;;;4.90;;
3085;SDS011;52812;48.960;9.108;2022-10-17T00:46:54;8.40;;;5.73;;
3085;SDS011;52812;48.960;9.108;2022-10-17T00:49:21;9.60;;;6.03;;
3085;SDS011;52812;48.960;9.108;2022-10-17T00:51:54;12.43;;;5.50;;
3085;SDS011;52812;48.960;9.108;2022-10-17T00:54:23;6.77;;;5.47;;
3085;SDS011;52812;48.960;9.108;2022-10-17T00:56:58;8.87;;;5.70;;
3085;SDS011;52812;48.960;9.108;2022-10-17T00:59:24;7.97;;;5.50;;
3085;SDS011;52812;48.960;9.108;2022-10-17T01:02:13;9.03;;;6.20;;
3085;SDS011;52812;48.960;9.108;2022-10-17T01:04:42;10.10;;;5.23;;
3085;SDS011;52812;48.960;9.108;2022-10-17T01:07:10;8.10;;;5.63;;
3085;SDS011;52812;48.960;9.108;2022-10-17T01:09:36;8.00;;;5.60;;
3085;SDS011;52812;48.960;9.108;2022-10-17T01:12:08;7.93;;;5.40;;
3085;SDS011;52812;48.960;9.108;2022-10-17T01:31:27;15.80;;;11.00;;
3085;SDS011;52812;48.960;9.108;2022-10-17T01:34:03;21.27;;;11.17;;
3085;SDS011;52812;48.960;9.108;2022-10-17T01:45:15;19.30;;;12.23;;
3085;SDS011;52812;48.960;9.108;2022-10-17T01:47:49;19.20;;;10.50;;
3085;SDS011;52812;48.960;9.108;2022-10-17T01:50:23;24.20;;;12.80;;
3085;SDS011;52812;48.960;9.108;2022-10-17T01:52:56;19.33;;;11.97;;
3085;SDS011;52812;48.960;9.108;2022-10-17T01:55:35;18.80;;;11.80;;
3085;SDS011;52812;48.960;9.108;2022-10-17T01:58:04;21.53;;;12.73;;
3085;SDS011;52812;48.960;9.108;2022-10-17T02:00:36;19.97;;;13.00;;
3085;SDS011;52812;48.960;9.108;2022-10-17T02:03:04;21.73;;;13.13;;
3085;SDS011;52812;48.960;9.108;2022-10-17T02:05:38;20.90;;;12.27;;
3085;SDS011;52812;48.960;9.108;2022-10-17T02:08:04;20.63;;;12.20;;
3085;SDS011;52812;48.960;9.108;2022-10-17T02:10:33;19.17;;;11.87;;
3085;SDS011;52812;48.960;9.108;2022-10-17T02:18:39;16.53;;;10.80;;
3085;SDS011;52812;48.960;9.108;2022-10-17T02:23:41;14.33;;;10.83;;
3085;SDS011;52812;48.960;9.108;2022-10-17T02:26:41;19.43;;;10.30;;
3085;SDS011;52812;48.960;9.108;2022-10-17T02:29:16;16.03;;;10.67;;
3085;SDS011;52812;48.960;9.108;2022-10-17T02:31:50;17.60;;;10.73;;
3085;SDS011;52812;48.960;9.108;2022-10-17T02:34:25;15.53;;;10.83;;
3085;SDS011;52812;48.960;9.108;2022-10-17T02:36:56;19.87;;;11.00;;
3085;SDS011;52812;48.960;9.108;2022-10-17T02:39:24;15.10;;;9.33;;
3085;SDS011;52812;48.960;9.108;2022-10-17T02:41:52;18.07;;;10.00;;
3085;SDS011;52812;48.960;9.108;2022-10-17T02:44:20;17.50;;;10.03;;
3085;SDS011;52812;48.960;9.108;2022-10-17T02:46:48;12.70;;;9.07;;
3085;SDS011;52812;48.960;9.108;2022-10-17T02:49:23;16.83;;;9.60;;
3085;SDS011;52812;48.960;9.108;2022-10-17T02:51:56;14.90;;;9.40;;
3085;SDS011;52812;48.960;9.108;2022-10-17T02:57:07;18.80;;;9.10;;
3085;SDS011;52812;48.960;9.108;2022-10-17T02:59:38;15.00;;;8.97;;
3085;SDS011;52812;48.960;9.108;2022-10-17T03:02:05;15.33;;;8.77;;
3085;SDS011;52812;48.960;9.108;2022-10-17T03:04:32;13.63;;;8.67;;
3085;SDS011;52812;48.960;9.108;2022-10-17T03:06:58;15.13;;;9.70;;
3085;SDS011;52812;48.960;9.108;2022-10-17T03:09:24;15.43;;;9.63;;
3085;SDS011;52812;48.960;9.108;2022-10-17T03:11:49;17.70;;;9.77;;
3085;SDS011;52812;48.960;9.108;2022-10-17T03:14:15;12.10;;;8.70;;
3085;SDS011;52812;48.960;9.108;2022-10-17T03:16:41;14.00;;;9.10;;
3085;SDS011;52812;48.960;9.108;2022-10-17T03:19:07;12.50;;;9.10;;
3085;SDS011;52812;48.960;9.108;2022-10-17T03:21:32;14.10;;;9.20;;
3085;SDS011;52812;48.960;9.108;2022-10-17T03:24:00;14.60;;;9.70;;
3085;SDS011;52812;48.960;9.108;2022-10-17T03:26:26;11.10;;;8.67;;
3085;SDS011;52812;48.960;9.108;2022-10-17T03:28:53;15.70;;;9.20;;
3085;SDS011;52812;48.960;9.108;2022-10-17T03:31:19;13.40;;;9.07;;
3085;SDS011;52812;48.960;9.108;2022-10-17T03:33:44;14.43;;;9.20;;
3085;SDS011;52812;48.960;9.108;2022-10-17T03:36:11;14.40;;;8.87;;
3085;SDS011;52812;48.960;9.108;2022-10-17T03:38:39;12.70;;;8.93;;
3085;SDS011;52812;48.960;9.108;2022-10-17T03:41:04;11.90;;;8.97;;
3085;SDS011;52812;48.960;9.108;2022-10-17T03:43:30;12.50;;;8.70;;
3085;SDS011;52812;48.960;9.108;2022-10-17T03:45:56;14.60;;;8.97;;
3085;SDS011;52812;48.960;9.108;2022-10-17T03:48:24;17.20;;;9.10;;
3085;SDS011;52812;48.960;9.108;2022-10-17T03:50:50;18.07;;;8.73;;
3085;SDS011;52812;48.960;9.108;2022-10-17T03:53:16;10.40;;;7.87;;
3085;SDS011;52812;48.960;9.108;2022-10-17T03:55:41;11.37;;;8.10;;
3085;SDS011;52812;48.960;9.108;2022-10-17T03:58:07;14.43;;;7.37;;
3085;SDS011;52812;48.960;9.108;2022-10-17T04:00:34;14.23;;;8.30;;
3085;SDS011;52812;48.960;9.108;2022-10-17T04:03:00;9.30;;;6.73;;
3085;SDS011;52812;48.960;9.108;2022-10-17T04:05:26;11.43;;;7.53;;
3085;SDS011;52812;48.960;9.108;2022-10-17T04:07:51;12.40;;;8.33;;
3085;SDS011;52812;48.960;9.108;2022-10-17T04:10:17;12.90;;;8.30;;
3085;SDS011;52812;48.960;9.108;2022-10-17T04:12:42;11.53;;;8.57;;
3085;SDS011;52812;48.960;9.108;2022-10-17T04:15:08;16.03;;;9.00;;
3085;SDS011;52812;48.960;9.108;2022-10-17T04:17:34;11.57;;;8.30;;
3085;SDS011;52812;48.960;9.108;2022-10-17T04:19:59;17.43;;;8.63;;
3085;SDS011;52812;48.960;9.108;2022-10-17T04:22:25;11.77;;;7.90;;
3085;SDS011;52812;48.960;9.108;2022-10-17T04:24:51;14.43;;;7.77;;
3085;SDS011;52812;48.960;9.108;2022-10-17T04:27:17;14.07;;;8.10;;
3085;SDS011;52812;48.960;9.108;2022-10-17T04:29:42;9.93;;;7.30;;
3085;SDS011;52812;48.960;9.108;2022-10-17T04:32:08;11.23;;;6.80;;
3085;SDS011;52812;48.960;9.108;2022-10-17T04:34:34;9.30;;;6.67;;
3085;SDS011;52812;48.960;9.108;2022-10-17T04:36:59;9.83;;;6.80;;
3085;SDS011;52812;48.960;9.108;2022-10-17T04:39:25;19.03;;;6.70;;
3085;SDS011;52812;48.960;9.108;2022-10-17T04:41:50;10.60;;;6.83;;
3085;SDS011;52812;48.960;9.108;2022-10-17T04:44:16;11.07;;;6.60;;
3085;SDS011;52812;48.960;9.108;2022-10-17T04:46:42;12.83;;;6.80;;
3085;SDS011;52812;48.960;9.108;2022-10-17T04:49:07;8.80;;;6.53;;
3085;SDS011;52812;48.960;9.108;2022-10-17T04:51:33;13.27;;;6.93;;
3085;SDS011;52812;48.960;9.108;2022-10-17T04:53:59;9.83;;;6.83;;
3085;SDS011;52812;48.960;9.108;2022-10-17T04:56:25;9.47;;;6.53;;
3085;SDS011;52812;48.960;9.108;2022-10-17T04:58:50;13.03;;;6.50;;
3085;SDS011;52812;48.960;9.108;2022-10-17T05:01:17;13.27;;;7.47;;
3085;SDS011;52812;48.960;9.108;2022-10-17T05:03:44;9.40;;;6.87;;
3085;SDS011;52812;48.960;9.108;2022-10-17T05:06:12;11.27;;;7.20;;
3085;SDS011;52812;48.960;9.108;2022-10-17T05:08:39;12.77;;;7.50;;
3085;SDS011;52812;48.960;9.108;2022-10-17T05:11:05;12.20;;;6.37;;
3085;SDS011;52812;48.960;9.108;2022-10-17T05:13:59;10.77;;;6.47;;
3085;SDS011;52812;48.960;9.108;2022-10-17T05:16:26;12.17;;;7.03;;
3085;SDS011;52812;48.960;9.108;2022-10-17T05:18:54;13.13;;;7.17;;
3085;SDS011;52812;48.960;9.108;2022-10-17T05:21:21;9.10;;;6.93;;
3085;SDS011;52812;48.960;9.108;2022-10-17T05:23:48;15.73;;;5.97;;
3085;SDS011;52812;48.960;9.108;2022-10-17T05:26:14;12.00;;;6.70;;
3085;SDS011;52812;48.960;9.108;2022-10-17T05:28:40;12.87;;;6.93;;
3085;SDS011;52812;48.960;9.108;2022-10-17T05:31:06;19.90;;;6.60;;
3085;SDS011;52812;48.960;9.108;2022-10-17T05:33:33;8.03;;;6.07;;
3085;SDS011;52812;48.960;9.108;2022-10-17T05:36:00;8.00;;;5.93;;
3085;SDS011;52812;48.960;9.108;2022-10-17T05:38:26;10.00;;;6.47;;
3085;SDS011;52812;48.960;9.108;2022-10-17T05:41:01;10.57;;;6.80;;
3085;SDS011;52812;48.960;9.108;2022-10-17T05:43:28;8.70;;;6.30;;
3085;SDS011;52812;48.960;9.108;2022-10-17T05:45:54;11.17;;;6.60;;
3085;SDS011;52812;48.960;9.108;2022-10-17T05:48:20;10.00;;;6.23;;
3085;SDS011;52812;48.960;9.108;2022-10-17T05:50:46;10.73;;;6.30;;
3085;SDS011;52812;48.960;9.108;2022-10-17T05:53:12;15.93;;;6.60;;
3085;SDS011;52812;48.960;9.108;2022-10-17T05:55:38;9.83;;;6.33;;
3085;SDS011;52812;48.960;9.108;2022-10-17T05:58:04;8.17;;;6.23;;
3085;SDS011;52812;48.960;9.108;2022-10-17T06:00:32;12.27;;;6.80;;
3085;SDS011;52812;48.960;9.108;2022-10-17T06:02:58;12.43;;;6.80;;
3085;SDS011;52812;48.960;9.108;2022-10-17T06:05:23;9.67;;;6.30;;
3085;SDS011;52812;48.960;9.108;2022-10-17T06:07:49;11.77;;;6.97;;
3085;SDS011;52812;48.960;9.108;2022-10-17T06:10:16;8.93;;;6.40;;
3085;SDS011;52812;48.960;9.108;2022-10-17T06:12:42;9.33;;;5.97;;
3085;SDS011;52812;48.960;9.108;2022-10-17T06:15:09;8.83;;;6.47;;
3085;SDS011;52812;48.960;9.108;2022-10-17T06:17:35;11.33;;;6.67;;
3085;SDS011;52812;48.960;9.108;2022-10-17T06:20:01;11.97;;;6.30;;
3085;SDS011;52812;48.960;9.108;2022-10-17T06:22:27;10.93;;;6.03;;
3085;SDS011;52812;48.960;9.108;2022-10-17T06:24:53;11.93;;;5.80;;
3085;SDS011;52812;48.960;9.108;2022-10-17T06:27:19;13.63;;;6.07;;
3085;SDS011;52812;48.960;9.108;2022-10-17T06:29:45;11.33;;;6.50;;
3085;SDS011;52812;48.960;9.108;2022-10-17T06:32:11;12.93;;;5.73;;
3085;SDS011;52812;48.960;9.108;2022-10-17T06:34:37;11.33;;;5.83;;
3085;SDS011;52812;48.960;9.108;2022-10-17T06:37:03;7.73;;;6.33;;
3085;SDS011;52812;48.960;9.108;2022-10-17T06:39:29;11.93;;;5.37;;
3085;SDS011;52812;48.960;9.108;2022-10-17T06:41:58;7.67;;;5.03;;
3085;SDS011;52812;48.960;9.108;2022-10-17T06:44:28;10.67;;;5.80;;
3085;SDS011;52812;48.960;9.108;2022-10-17T06:46:55;10.63;;;5.50;;
3085;SDS011;52812;48.960;9.108;2022-10-17T06:52:13;9.43;;;5.20;;
3085;SDS011;52812;48.960;9.108;2022-10-17T06:54:41;9.97;;;4.90;;
3085;SDS011;52812;48.960;9.108;2022-10-17T06:57:07;9.33;;;4.53;;
3085;SDS011;52812;48.960;9.108;2022-10-17T06:59:32;9.50;;;4.90;;
3085;SDS011;52812;48.960;9.108;2022-10-17T07:01:59;9.70;;;4.50;;
3085;SDS011;52812;48.960;9.108;2022-10-17T07:04:25;7.47;;;4.80;;
3085;SDS011;52812;48.960;9.108;2022-10-17T07:06:51;5.73;;;4.33;;
3085;SDS011;52812;48.960;9.108;2022-10-17T07:09:18;6.43;;;4.33;;
3085;SDS011;52812;48.960;9.108;2022-10-17T07:11:44;12.20;;;4.83;;
3085;SDS011;52812;48.960;9.108;2022-10-17T07:14:10;8.90;;;4.33;;
3085;SDS011;52812;48.960;9.108;2022-10-17T07:16:35;7.67;;;4.60;;
3085;SDS011;52812;48.960;9.108;2022-10-17T07:19:01;5.87;;;4.43;;
3085;SDS011;52812;48.960;9.108;2022-10-17T07:21:27;11.87;;;4.70;;
3085;SDS011;52812;48.960;9.108;2022-10-17T07:23:52;10.30;;;4.37;;
3085;SDS011;52812;48.960;9.108;2022-10-17T07:26:18;10.03;;;4.63;;
3085;SDS011;52812;48.960;9.108;2022-10-17T07:28:45;14.27;;;5.50;;
3085;SDS011;52812;48.960;9.108;2022-10-17T07:31:12;13.97;;;5.70;;
3085;SDS011;52812;48.960;9.108;2022-10-17T07:33:40;10.90;;;5.13;;
3085;SDS011;52812;48.960;9.108;2022-10-17T07:36:06;9.17;;;5.10;;
3085;SDS011;52812;48.960;9.108;2022-10-17T07:38:32;8.60;;;5.60;;
3085;SDS011;52812;48.960;9.108;2022-10-17T07:40:59;8.27;;;5.20;;
3085;SDS011;52812;48.960;9.108;2022-10-17T07:43:26;11.03;;;5.53;;
3085;SDS011;52812;48.960;9.108;2022-10-17T07:45:53;10.30;;;5.57;;
3085;SDS011;52812;48.960;9.108;2022-10-17T07:48:19;15.07;;;5.47;;
3085;SDS011;52812;48.960;9.108;2022-10-17T07:50:46;10.93;;;5.50;;
3085;SDS011;52812;48.960;9.108;2022-10-17T07:53:13;9.67;;;5.80;;
3085;SDS011;52812;48.960;9.108;2022-10-17T07:55:39;7.90;;;5.33;;
3085;SDS011;52812;48.960;9.108;2022-10-17T07:58:05;12.43;;;5.90;;
3085;SDS011;52812;48.960;9.108;2022-10-17T08:00:32;11.93;;;5.60;;
3085;SDS011;52812;48.960;9.108;2022-10-17T08:02:57;8.20;;;5.50;;
3085;SDS011;52812;48.960;9.108;2022-10-17T08:05:23;8.10;;;5.63;;
3085;SDS011;52812;48.960;9.108;2022-10-17T08:07:51;11.33;;;5.47;;
3085;SDS011;52812;48.960;9.108;2022-10-17T08:10:17;10.10;;;5.67;;
3085;SDS011;52812;48.960;9.108;2022-10-17T08:12:43;12.70;;;5.40;;
3085;SDS011;52812;48.960;9.108;2022-10-17T08:15:08;10.67;;;5.73;;
3085;SDS011;52812;48.960;9.108;2022-10-17T08:17:35;8.73;;;5.67;;
3085;SDS011;52812;48.960;9.108;2022-10-17T08:20:01;10.13;;;4.87;;
3085;SDS011;52812;48.960;9.108;2022-10-17T08:22:30;10.70;;;5.10;;
3085;SDS011;52812;48.960;9.108;2022-10-17T08:24:56;12.27;;;5.83;;
3085;SDS011;52812;48.960;9.108;2022-10-17T08:27:22;9.87;;;5.17;;
3085;SDS011;52812;48.960;9.108;2022-10-17T08:29:49;9.97;;;4.90;;
3085;SDS011;52812;48.960;9.108;2022-10-17T08:32:22;6.43;;;5.03;;
3085;SDS011;52812;48.960;9.108;2022-10-17T08:34:50;7.87;;;4.97;;
3085;SDS011;52812;48.960;9.108;2022-10-17T08:37:16;8.37;;;5.23;;
3085;SDS011;52812;48.960;9.108;2022-10-17T08:39:41;9.87;;;4.80;;
3085;SDS011;52812;48.960;9.108;2022-10-17T08:42:21;6.13;;;4.53;;
3085;SDS011;52812;48.960;9.108;2022-10-17T08:45:40;7.10;;;5.03;;
3085;SDS011;52812;48.960;9.108;2022-10-17T08:48:03;7.77;;;4.40;;
3085;SDS011;52812;48.960;9.108;2022-10-17T08:50:35;7.33;;;4.60;;
3085;SDS011;52812;48.960;9.108;2022-10-17T08:53:09;13.83;;;4.43;;
3085;SDS011;52812;48.960;9.108;2022-10-17T08:55:46;8.27;;;4.40;;
3085;SDS011;52812;48.960;9.108;2022-10-17T08:58:13;6.17;;;4.77;;
3085;SDS011;52812;48.960;9.108;2022-10-17T09:03:43;7.60;;;4.90;;
3085;SDS011;52812;48.960;9.108;2022-10-17T09:11:45;11.07;;;4.90;;
3085;SDS011;52812;48.960;9.108;2022-10-17T09:23:25;9.53;;;5.23;;
3085;SDS011;52812;48.960;9.108;2022-10-17T09:25:57;6.97;;;4.40;;
3085;SDS011;52812;48.960;9.108;2022-10-17T09:28:31;7.57;;;4.60;;
3085;SDS011;52812;48.960;9.108;2022-10-17T09:31:02;8.60;;;4.80;;
3085;SDS011;52812;48.960;9.108;2022-10-17T09:33:36;11.33;;;4.67;;
3085;SDS011;52812;48.960;9.108;2022-10-17T09:36:05;12.57;;;5.70;;
3085;SDS011;52812;48.960;9.108;2022-10-17T09:39:04;11.63;;;5.53;;
3085;SDS011;52812;48.960;9.108;2022-10-17T09:41:38;9.50;;;5.03;;
3085;SDS011;52812;48.960;9.108;2022-10-17T09:49:45;9.07;;;4.67;;
3085;SDS011;52812;48.960;9.108;2022-10-17T09:52:54;9.43;;;4.67;;
3085;SDS011;52812;48.960;9.108;2022-10-17T09:55:19;7.83;;;5.37;;
3085;SDS011;52812;48.960;9.108;2022-10-17T09:58:01;7.93;;;4.73;;
3085;SDS011;52812;48.960;9.108;2022-10-17T10:00:32;9.00;;;4.40;;
3085;SDS011;52812;48.960;9.108;2022-10-17T10:06:05;10.47;;;4.53;;
3085;SDS011;52812;48.960;9.108;2022-10-17T10:08:52;9.80;;;5.13;;
3085;SDS011;52812;48.960;9.108;2022-10-17T10:11:22;5.20;;;4.10;;
3085;SDS011;52812;48.960;9.108;2022-10-17T10:13:50;6.80;;;3.80;;
3085;SDS011;52812;48.960;9.108;2022-10-17T10:16:18;5.20;;;3.77;;
3085;SDS011;52812;48.960;9.108;2022-10-17T10:18:46;12.10;;;4.40;;
3085;SDS011;52812;48.960;9.108;2022-10-17T10:21:30;5.53;;;3.57;;
3085;SDS011;52812;48.960;9.108;2022-10-17T10:26:40;6.13;;;3.73;;
3085;SDS011;52812;48.960;9.108;2022-10-17T10:31:47;6.90;;;3.40;;
3085;SDS011;52812;48.960;9.108;2022-10-17T10:34:16;7.23;;;3.40;;
3085;SDS011;52812;48.960;9.108;2022-10-17T10:36:55;6.00;;;3.60;;
3085;SDS011;52812;48.960;9.108;2022-10-17T10:39:26;8.70;;;3.67;;
3085;SDS011;52812;48.960;9.108;2022-10-17T10:41:52;5.93;;;3.30;;
3085;SDS011;52812;48.960;9.108;2022-10-17T10:44:19;4.07;;;3.07;;
3085;SDS011;52812;48.960;9.108;2022-10-17T10:46:51;6.40;;;3.03;;
3085;SDS011;52812;48.960;9.108;2022-10-17T10:49:31;12.90;;;3.10;;
3085;SDS011;52812;48.960;9.108;2022-10-17T10:51:57;6.27;;;3.20;;
3085;SDS011;52812;48.960;9.108;2022-10-17T10:54:33;5.30;;;3.10;;
3085;SDS011;52812;48.960;9.108;2022-10-17T10:57:03;4.80;;;3.30;;
3085;SDS011;52812;48.960;9.108;2022-10-17T11:05:12;5.80;;;3.70;;
3085;SDS011;52812;48.960;9.108;2022-10-17T11:07:55;5.93;;;3.40;;
3085;SDS011;52812;48.960;9.108;2022-10-17T11:10:41;6.80;;;3.30;;
3085;SDS011;52812;48.960;9.108;2022-10-17T11:13:22;7.90;;;3.70;;
3085;SDS011;52812;48.960;9.108;2022-10-17T11:21:36;5.33;;;3.37;;
3085;SDS011;52812;48.960;9.108;2022-10-17T11:24:20;4.57;;;3.27;;
3085;SDS011;52812;48.960;9.108;2022-10-17T11:27:03;5.27;;;3.37;;
3085;SDS011;52812;48.960;9.108;2022-10-17T11:29:31;12.27;;;5.80;;
3085;SDS011;52812;48.960;9.108;2022-10-17T11:32:06;5.47;;;3.20;;
3085;SDS011;52812;48.960;9.108;2022-10-17T11:34:47;4.70;;;3.17;;
3085;SDS011;52812;48.960;9.108;2022-10-17T11:37:20;10.20;;;3.10;;
3085;SDS011;52812;48.960;9.108;2022-10-17T11:42:22;8.50;;;3.70;;
3085;SDS011;52812;48.960;9.108;2022-10-17T11:44:58;5.57;;;3.10;;
3085;SDS011;52812;48.960;9.108;2022-10-17T11:47:36;4.50;;;3.00;;
3085;SDS011;52812;48.960;9.108;2022-10-17T11:53:00;4.07;;;3.00;;
3085;SDS011;52812;48.960;9.108;2022-10-17T11:55:30;3.40;;;2.83;;
3085;SDS011;52812;48.960;9.108;2022-10-17T12:03:28;5.40;;;2.87;;
3085;SDS011;52812;48.960;9.108;2022-10-17T12:11:54;7.80;;;3.10;;
3085;SDS011;52812;48.960;9.108;2022-10-17T12:22:48;5.90;;;3.07;;
3085;SDS011;52812;48.960;9.108;2022-10-17T12:25:25;5.53;;;3.00;;
3085;SDS011;52812;48.960;9.108;2022-10-17T12:30:29;7.23;;;3.10;;
3085;SDS011;52812;48.960;9.108;2022-10-17T12:32:56;5.93;;;3.10;;
3085;SDS011;52812;48.960;9.108;2022-10-17T12:35:35;5.10;;;2.87;;
3085;SDS011;52812;48.960;9.108;2022-10-17T12:45:43;6.97;;;3.10;;
3085;SDS011;52812;48.960;9.108;2022-10-17T12:48:11;4.27;;;2.80;;
3085;SDS011;52812;48.960;9.108;2022-10-17T12:51:04;3.47;;;2.87;;
3085;SDS011;52812;48.960;9.108;2022-10-17T12:56:07;5.10;;;3.00;;
3085;SDS011;52812;48.960;9.108;2022-10-17T12:58:33;3.57;;;2.80;;
3085;SDS011;52812;48.960;9.108;2022-10-17T13:00:59;5.13;;;2.80;;
3085;SDS011;52812;48.960;9.108;2022-10-17T13:03:32;7.00;;;2.87;;
3085;SDS011;52812;48.960;9.108;2022-10-17T13:06:05;3.03;;;2.60;;
3085;SDS011;52812;48.960;9.108;2022-10-17T13:08:36;8.20;;;2.97;;
3085;SDS011;52812;48.960;9.108;2022-10-17T13:11:04;3.50;;;2.80;;
3085;SDS011;52812;48.960;9.108;2022-10-17T13:16:06;3.40;;;2.60;;
3085;SDS011;52812;48.960;9.108;2022-10-17T13:18:32;7.70;;;3.13;;
3085;SDS011;52812;48.960;9.108;2022-10-17T13:20:59;3.00;;;2.70;;
3085;SDS011;52812;48.960;9.108;2022-10-17T13:23:32;6.47;;;3.00;;
3085;SDS011;52812;48.960;9.108;2022-10-17T13:26:06;5.33;;;3.03;;
3085;SDS011;52812;48.960;9.108;2022-10-17T13:28:40;3.70;;;2.97;;
3085;SDS011;52812;48.960;9.108;2022-10-17T13:31:12;4.33;;;3.33;;
3085;SDS011;52812;48.960;9.108;2022-10-17T13:33:54;4.53;;;3.27;;
3085;SDS011;52812;48.960;9.108;2022-10-17T13:36:21;5.17;;;3.13;;
3085;SDS011;52812;48.960;9.108;2022-10-17T13:38:48;8.33;;;3.10;;
3085;SDS011;52812;48.960;9.108;2022-10-17T13:41:14;5.60;;;2.87;;
3085;SDS011;52812;48.960;9.108;2022-10-17T13:43:44;7.40;;;3.50;;
3085;SDS011;52812;48.960;9.108;2022-10-17T13:46:28;3.80;;;2.97;;
3085;SDS011;52812;48.960;9.108;2022-10-17T13:48:56;4.10;;;2.97;;
3085;SDS011;52812;48.960;9.108;2022-10-17T13:51:24;11.00;;;3.33;;
3085;SDS011;52812;48.960;9.108;2022-10-17T13:53:51;4.10;;;3.00;;
3085;SDS011;52812;48.960;9.108;2022-10-17T13:56:19;6.67;;;3.10;;
3085;SDS011;52812;48.960;9.108;2022-10-17T13:58:53;3.13;;;2.53;;
3085;SDS011;52812;48.960;9.108;2022-10-17T14:01:21;5.33;;;3.20;;
3085;SDS011;52812;48.960;9.108;2022-10-17T14:03:48;4.27;;;2.90;;
3085;SDS011;52812;48.960;9.108;2022-10-17T14:08:50;6.43;;;2.83;;
3085;SDS011;52812;48.960;9.108;2022-10-17T14:11:35;7.40;;;3.00;;
3085;SDS011;52812;48.960;9.108;2022-10-17T14:14:06;7.73;;;2.90;;
3085;SDS011;52812;48.960;9.108;2022-10-17T14:16:41;6.93;;;3.00;;
3085;SDS011;52812;48.960;9.108;2022-10-17T14:19:18;5.83;;;3.10;;
3085;SDS011;52812;48.960;9.108;2022-10-17T14:22:13;5.03;;;2.87;;
3085;SDS011;52812;48.960;9.108;2022-10-17T14:24:41;4.93;;;3.30;;
3085;SDS011;52812;48.960;9.108;2022-10-17T14:27:30;5.97;;;2.80;;
3085;SDS011;52812;48.960;9.108;2022-10-17T14:30:00;4.07;;;2.70;;
3085;SDS011;52812;48.960;9.108;2022-10-17T14:32:29;3.70;;;2.90;;
3085;SDS011;52812;48.960;9.108;2022-10-17T14:34:57;5.60;;;3.20;;
3085;SDS011;52812;48.960;9.108;2022-10-17T14:37:32;8.07;;;3.37;;
3085;SDS011;52812;48.960;9.108;2022-10-17T14:40:18;4.37;;;2.93;;
3085;SDS011;52812;48.960;9.108;2022-10-17T14:42:45;5.43;;;2.97;;
3085;SDS011;52812;48.960;9.108;2022-10-17T14:45:33;3.90;;;2.97;;
3085;SDS011;52812;48.960;9.108;2022-10-17T14:48:01;4.60;;;2.73;;
3085;SDS011;52812;48.960;9.108;2022-10-17T14:50:35;4.00;;;2.83;;
3085;SDS011;52812;48.960;9.108;2022-10-17T14:53:05;4.93;;;2.83;;
3085;SDS011;52812;48.960;9.108;2022-10-17T14:55:50;4.83;;;3.17;;
3085;SDS011;52812;48.960;9.108;2022-10-17T14:58:24;3.20;;;2.90;;
3085;SDS011;52812;48.960;9.108;2022-10-17T15:00:55;4.17;;;2.83;;
3085;SDS011;52812;48.960;9.108;2022-10-17T15:03:21;7.03;;;3.17;;
3085;SDS011;52812;48.960;9.108;2022-10-17T15:05:47;7.00;;;2.93;;
3085;SDS011;52812;48.960;9.108;2022-10-17T15:08:15;5.40;;;2.90;;
3085;SDS011;52812;48.960;9.108;2022-10-17T15:10:42;3.50;;;3.03;;
3085;SDS011;52812;48.960;9.108;2022-10-17T15:13:09;4.07;;;3.27;;
3085;SDS011;52812;48.960;9.108;2022-10-17T15:15:36;7.20;;;3.20;;
3085;SDS011;52812;48.960;9.108;2022-10-17T15:18:03;5.07;;;3.27;;
3085;SDS011;52812;48.960;9.108;2022-10-17T15:20:29;3.50;;;3.20;;
3085;SDS011;52812;48.960;9.108;2022-10-17T15:22:56;5.00;;;2.90;;
3085;SDS011;52812;48.960;9.108;2022-10-17T15:25:24;7.13;;;3.50;;
3085;SDS011;52812;48.960;9.108;2022-10-17T15:27:51;6.53;;;3.37;;
3085;SDS011;52812;48.960;9.108;2022-10-17T15:30:19;5.73;;;3.50;;
3085;SDS011;52812;48.960;9.108;2022-10-17T15:32:45;9.60;;;4.20;;
3085;SDS011;52812;48.960;9.108;2022-10-17T15:35:11;7.00;;;3.80;;
3085;SDS011;52812;48.960;9.108;2022-10-17T15:37:36;7.63;;;3.63;;
3085;SDS011;52812;48.960;9.108;2022-10-17T15:40:03;9.13;;;3.90;;
3085;SDS011;52812;48.960;9.108;2022-10-17T15:42:29;3.80;;;3.30;;
3085;SDS011;52812;48.960;9.108;2022-10-17T15:44:55;15.73;;;4.10;;
3085;SDS011;52812;48.960;9.108;2022-10-17T15:47:23;6.53;;;3.07;;
3085;SDS011;52812;48.960;9.108;2022-10-17T15:49:54;5.37;;;3.20;;
3085;SDS011;52812;48.960;9.108;2022-10-17T15:52:21;4.53;;;3.10;;
3085;SDS011;52812;48.960;9.108;2022-10-17T15:54:47;7.80;;;3.40;;
3085;SDS011;52812;48.960;9.108;2022-10-17T15:57:20;4.60;;;3.40;;
3085;SDS011;52812;48.960;9.108;2022-10-17T15:59:50;5.33;;;3.50;;
3085;SDS011;52812;48.960;9.108;2022-10-17T16:02:17;8.90;;;4.07;;
3085;SDS011;52812;48.960;9.108;2022-10-17T16:04:44;3.97;;;2.80;;
3085;SDS011;52812;48.960;9.108;2022-10-17T16:07:10;7.13;;;3.40;;
3085;SDS011;52812;48.960;9.108;2022-10-17T16:09:36;12.83;;;4.17;;
3085;SDS011;52812;48.960;9.108;2022-10-17T16:12:02;6.27;;;3.37;;
3085;SDS011;52812;48.960;9.108;2022-10-17T16:14:29;5.60;;;3.30;;
3085;SDS011;52812;48.960;9.108;2022-10-17T16:16:56;12.20;;;3.90;;
3085;SDS011;52812;48.960;9.108;2022-10-17T16:19:23;6.20;;;3.50;;
3085;SDS011;52812;48.960;9.108;2022-10-17T16:21:53;6.40;;;3.50;;
3085;SDS011;52812;48.960;9.108;2022-10-17T16:24:21;9.37;;;3.50;;
3085;SDS011;52812;48.960;9.108;2022-10-17T16:26:47;9.27;;;3.87;;
3085;SDS011;52812;48.960;9.108;2022-10-17T16:29:13;9.07;;;3.93;;
3085;SDS011;52812;48.960;9.108;2022-10-17T16:31:39;9.50;;;4.37;;
3085;SDS011;52812;48.960;9.108;2022-10-17T16:34:07;7.80;;;3.73;;
3085;SDS011;52812;48.960;9.108;2022-10-17T16:36:34;7.57;;;3.80;;
3085;SDS011;52812;48.960;9.108;2022-10-17T16:38:59;7.70;;;3.80;;
3085;SDS011;52812;48.960;9.108;2022-10-17T16:41:26;7.70;;;3.87;;
3085;SDS011;52812;48.960;9.108;2022-10-17T16:43:55;6.80;;;3.50;;
3085;SDS011;52812;48.960;9.108;2022-10-17T16:46:22;7.87;;;3.60;;
3085;SDS011;52812;48.960;9.108;2022-10-17T16:48:49;8.20;;;4.20;;
3085;SDS011;52812;48.960;9.108;2022-10-17T16:51:15;10.30;;;4.40;;
3085;SDS011;52812;48.960;9.108;2022-10-17T16:53:43;6.40;;;4.20;;
3085;SDS011;52812;48.960;9.108;2022-10-17T16:56:10;7.83;;;4.53;;
3085;SDS011;52812;48.960;9.108;2022-10-17T16:58:38;12.90;;;4.50;;
3085;SDS011;52812;48.960;9.108;2022-10-17T17:01:06;7.57;;;4.30;;
3085;SDS011;52812;48.960;9.108;2022-10-17T17:03:36;7.17;;;4.30;;
3085;SDS011;52812;48.960;9.108;2022-10-17T17:06:04;12.63;;;4.67;;
3085;SDS011;52812;48.960;9.108;2022-10-17T17:08:30;23.97;;;5.07;;
3085;SDS011;52812;48.960;9.108;2022-10-17T17:10:56;17.10;;;5.37;;
3085;SDS011;52812;48.960;9.108;2022-10-17T17:13:22;9.10;;;4.50;;
3085;SDS011;52812;48.960;9.108;2022-10-17T17:15:49;9.30;;;4.93;;